createdAt,value
2019-06-01T00:01:15.881Z,101497.24
2019-06-01T00:03:46.479Z,101498.93
2019-06-01T00:06:16.095Z,101498.18
2019-06-01T00:08:46.830Z,101492.30
2019-06-01T00:11:17.573Z,101502.19
2019-06-01T00:13:47.742Z,101503.80
2019-06-01T00:16:17.382Z,101496.73
2019-06-01T00:18:48.333Z,101490.77
2019-06-01T00:21:18.131Z,101498.80
2019-06-01T00:23:48.721Z,101496.34
2019-06-01T00:26:18.457Z,101488.80
2019-06-01T00:28:48.060Z,101490.72
2019-06-01T00:31:17.744Z,101481.68
2019-06-01T00:33:47.621Z,101481.78
2019-06-01T00:36:17.224Z,101485.45
2019-06-01T00:38:47.832Z,101487.98
2019-06-01T00:41:17.483Z,101479.52
2019-06-01T00:43:48.431Z,101481.47
2019-06-01T00:46:18.372Z,101477.43
2019-06-01T00:48:48.374Z,101478.64
2019-06-01T00:51:18.240Z,101476.00
2019-06-01T00:53:49.405Z,101482.25
2019-06-01T00:56:19.278Z,101480.26
2019-06-01T00:58:49.821Z,101478.66
2019-06-01T01:01:19.485Z,101483.38
2019-06-01T01:03:50.106Z,101479.60
2019-06-01T01:06:19.787Z,101481.39
2019-06-01T01:08:49.322Z,101486.86
2019-06-01T01:11:19.152Z,101482.80
2019-06-01T01:13:49.227Z,101486.16
2019-06-01T01:16:18.853Z,101489.73
2019-06-01T01:18:49.666Z,101489.73
2019-06-01T01:21:19.437Z,101485.20
2019-06-01T01:23:50.251Z,101495.88
2019-06-01T01:26:19.832Z,101496.52
2019-06-01T01:28:49.402Z,101499.62
2019-06-01T01:31:19.035Z,101488.42
2019-06-01T01:33:49.352Z,101498.02
2019-06-01T01:36:19.047Z,101490.28
2019-06-01T01:38:50.355Z,101493.31
2019-06-01T01:41:20.129Z,101489.14
2019-06-01T01:43:50.392Z,101484.43
2019-06-01T01:46:20.087Z,101479.44
2019-06-01T01:48:49.920Z,101478.58
2019-06-01T01:51:19.575Z,101483.39
2019-06-01T01:53:50.470Z,101470.38
2019-06-01T01:56:20.193Z,101476.22
2019-06-01T01:58:50.287Z,101477.26
2019-06-01T02:01:22.855Z,101472.16
2019-06-01T02:03:52.201Z,101471.02
2019-06-01T02:06:22.713Z,101466.84
2019-06-01T02:08:53.500Z,101469.30
2019-06-01T02:11:23.295Z,101467.70
2019-06-01T02:13:53.613Z,101464.37
2019-06-01T02:16:23.333Z,101470.51
2019-06-01T02:18:54.349Z,101469.44
2019-06-01T02:21:24.476Z,101469.72
2019-06-01T02:23:54.866Z,101474.70
2019-06-01T02:26:24.628Z,101474.52
2019-06-01T02:28:55.295Z,101469.42
2019-06-01T02:31:39.707Z,101476.30
2019-06-01T02:33:56.988Z,101470.17
2019-06-01T02:36:27.577Z,101469.12
2019-06-01T02:38:58.597Z,101468.45
2019-06-01T02:41:28.461Z,101464.84
2019-06-01T02:43:59.122Z,101466.73
2019-06-01T02:46:28.797Z,101463.91
2019-06-01T02:48:59.787Z,101474.06
2019-06-01T02:51:29.622Z,101460.98
2019-06-01T02:53:59.649Z,101473.04
2019-06-01T02:56:29.235Z,101466.91
2019-06-01T02:58:58.786Z,101465.30
2019-06-01T03:01:37.166Z,101467.64
2019-06-01T03:04:09.938Z,101469.53
2019-06-01T03:06:42.479Z,101467.23
2019-06-01T03:09:13.040Z,101465.20
2019-06-01T03:11:43.346Z,101473.38
2019-06-01T03:14:13.747Z,101473.77
2019-06-01T03:16:44.330Z,101474.70
2019-06-01T03:19:17.235Z,101468.20
2019-06-01T03:21:49.451Z,101471.67
2019-06-01T03:24:23.610Z,101470.91
2019-06-01T03:26:55.065Z,101468.84
2019-06-01T03:29:28.088Z,101476.45
2019-06-01T03:32:17.791Z,101478.02
2019-06-01T03:34:29.010Z,101482.17
2019-06-01T03:36:58.710Z,101480.63
2019-06-01T03:39:28.755Z,101481.91
2019-06-01T03:41:58.494Z,101482.14
2019-06-01T03:44:28.035Z,101484.64
2019-06-01T03:46:57.779Z,101479.38
2019-06-01T03:49:27.329Z,101484.28
2019-06-01T03:51:56.899Z,101482.97
2019-06-01T03:54:26.466Z,101480.23
2019-06-01T03:56:56.058Z,101481.09
2019-06-01T03:59:25.606Z,101466.69
2019-06-01T04:01:55.267Z,101472.26
2019-06-01T04:04:24.803Z,101465.97
2019-06-01T04:06:54.830Z,101468.14
2019-06-01T04:09:24.418Z,101467.64
2019-06-01T04:11:54.029Z,101470.97
2019-06-01T04:14:23.714Z,101473.51
2019-06-01T04:16:53.294Z,101475.52
2019-06-01T04:19:22.981Z,101476.77
2019-06-01T04:21:52.528Z,101475.34
2019-06-01T04:24:22.244Z,101483.09
2019-06-01T04:26:51.782Z,101477.72
2019-06-01T04:29:21.351Z,101484.83
2019-06-01T04:31:50.944Z,101474.11
2019-06-01T04:34:20.516Z,101477.05
2019-06-01T04:36:50.123Z,101483.08
2019-06-01T04:39:19.688Z,101481.69
2019-06-01T04:41:49.261Z,101485.08
2019-06-01T04:44:18.863Z,101486.23
2019-06-01T04:46:48.409Z,101484.60
2019-06-01T04:49:18.000Z,101494.59
2019-06-01T04:51:47.567Z,101494.02
2019-06-01T04:54:17.148Z,101488.47
2019-06-01T04:56:46.677Z,101487.84
2019-06-01T04:59:16.211Z,101481.07
2019-06-01T05:01:45.804Z,101482.05
2019-06-01T05:04:15.575Z,101486.19
2019-06-01T05:06:45.397Z,101483.66
2019-06-01T05:09:15.707Z,101485.09
2019-06-01T05:11:45.628Z,101489.84
2019-06-01T05:14:16.569Z,101481.64
2019-06-01T05:16:46.380Z,101473.62
2019-06-01T05:19:16.678Z,101470.63
2019-06-01T05:21:46.476Z,101461.38
2019-06-01T05:24:17.164Z,101465.16
2019-06-01T05:26:46.856Z,101465.84
2019-06-01T05:29:17.794Z,101465.09
2019-06-01T05:31:48.012Z,101457.27
2019-06-01T05:34:18.434Z,101461.80
2019-06-01T05:36:48.137Z,101461.63
2019-06-01T05:39:18.807Z,101457.84
2019-06-01T05:41:48.438Z,101460.11
2019-06-01T05:44:19.293Z,101452.58
2019-06-01T05:46:49.102Z,101459.17
2019-06-01T05:49:18.734Z,101458.84
2019-06-01T05:51:48.337Z,101456.38
2019-06-01T05:54:18.875Z,101445.99
2019-06-01T05:56:48.643Z,101448.34
2019-06-01T05:59:18.400Z,101450.47
2019-06-01T06:01:48.029Z,101446.78
2019-06-01T06:04:17.675Z,101448.62
2019-06-01T06:06:47.298Z,101443.75
2019-06-01T06:09:17.124Z,101444.01
2019-06-01T06:11:46.804Z,101439.78
2019-06-01T06:14:17.573Z,101439.77
2019-06-01T06:16:47.380Z,101445.90
2019-06-01T06:19:20.260Z,101447.02
2019-06-01T06:21:48.476Z,101439.61
2019-06-01T06:24:18.585Z,101440.44
2019-06-01T06:26:48.276Z,101437.84
2019-06-01T06:29:18.931Z,101449.72
2019-06-01T06:31:48.602Z,101447.50
2019-06-01T06:34:19.609Z,101449.89
2019-06-01T06:36:50.256Z,101447.43
2019-06-01T06:39:20.105Z,101451.58
2019-06-01T06:41:49.787Z,101452.45
2019-06-01T06:44:20.525Z,101449.31
2019-06-01T06:46:50.196Z,101453.20
2019-06-01T06:49:21.286Z,101449.08
2019-06-01T06:51:51.052Z,101449.72
2019-06-01T06:54:21.787Z,101448.61
2019-06-01T06:56:51.458Z,101448.44
2019-06-01T06:59:21.018Z,101452.39
2019-06-01T07:01:50.797Z,101451.38
2019-06-01T07:04:21.383Z,101453.56
2019-06-01T07:06:50.989Z,101449.56
2019-06-01T07:09:20.553Z,101450.56
2019-06-01T07:11:50.099Z,101445.38
2019-06-01T07:14:19.885Z,101444.71
2019-06-01T07:16:49.430Z,101443.04
2019-06-01T07:19:19.966Z,101450.08
2019-06-01T07:21:49.489Z,101459.85
2019-06-01T07:24:19.570Z,101455.59
2019-06-01T07:26:49.156Z,101448.72
2019-06-01T07:29:19.945Z,101449.72
2019-06-01T07:31:49.765Z,101446.48
2019-06-01T07:34:30.705Z,101450.55
2019-06-01T07:36:50.822Z,101448.09
2019-06-01T07:39:20.648Z,101448.80
2019-06-01T07:41:50.304Z,101443.34
2019-06-01T07:44:20.857Z,101451.04
2019-06-01T07:46:50.675Z,101451.36
2019-06-01T07:49:21.064Z,101450.11
2019-06-01T07:51:50.796Z,101445.89
2019-06-01T07:54:22.266Z,101448.72
2019-06-01T07:56:52.645Z,101448.64
2019-06-01T07:59:24.107Z,101445.62
2019-06-01T08:01:54.659Z,101448.17
2019-06-01T08:04:26.298Z,101444.98
2019-06-01T08:06:55.589Z,101442.45
2019-06-01T08:09:26.558Z,101443.21
2019-06-01T08:11:56.403Z,101449.86
2019-06-01T08:14:26.530Z,101445.78
2019-06-01T08:16:56.197Z,101448.27
2019-06-01T08:19:26.019Z,101447.69
2019-06-01T08:21:55.687Z,101437.49
2019-06-01T08:24:26.202Z,101433.64
2019-06-01T08:26:55.957Z,101431.67
2019-06-01T08:29:26.654Z,101437.14
2019-06-01T08:31:56.924Z,101436.66
2019-06-01T08:34:26.932Z,101438.34
2019-06-01T08:36:56.495Z,101426.16
2019-06-01T08:39:27.400Z,101428.05
2019-06-01T08:41:57.045Z,101427.39
2019-06-01T08:44:27.715Z,101432.55
2019-06-01T08:46:57.898Z,101432.89
2019-06-01T08:49:30.563Z,101429.14
2019-06-01T08:52:01.809Z,101428.48
2019-06-01T08:54:32.283Z,101424.56
2019-06-01T08:57:02.070Z,101420.22
2019-06-01T08:59:32.562Z,101416.04
2019-06-01T09:02:02.176Z,101428.48
2019-06-01T09:04:32.803Z,101429.02
2019-06-01T09:07:02.672Z,101427.30
2019-06-01T09:09:33.233Z,101422.80
2019-06-01T09:12:02.757Z,101416.40
2019-06-01T09:14:33.465Z,101434.03
2019-06-01T09:17:03.407Z,101426.17
2019-06-01T09:19:33.660Z,101431.78
2019-06-01T09:22:03.217Z,101428.66
2019-06-01T09:24:33.965Z,101431.42
2019-06-01T09:27:03.669Z,101417.60
2019-06-01T09:29:34.082Z,101422.41
2019-06-01T09:32:04.419Z,101416.58
2019-06-01T09:34:34.511Z,101415.55
2019-06-01T09:37:04.062Z,101418.36
2019-06-01T09:39:34.791Z,101414.62
2019-06-01T09:42:04.726Z,101408.39
2019-06-01T09:44:35.236Z,101408.96
2019-06-01T09:47:06.125Z,101410.37
2019-06-01T09:49:35.834Z,101408.81
2019-06-01T09:52:05.744Z,101405.44
2019-06-01T09:54:36.386Z,101405.31
2019-06-01T09:57:07.294Z,101409.65
2019-06-01T09:59:37.932Z,101396.23
2019-06-01T10:02:08.042Z,101395.02
2019-06-01T10:04:38.825Z,101400.02
2019-06-01T10:07:09.158Z,101400.32
2019-06-01T10:09:38.714Z,101398.40
2019-06-01T10:12:08.298Z,101404.09
2019-06-01T10:14:39.253Z,101400.58
2019-06-01T10:17:09.048Z,101394.48
2019-06-01T10:19:39.189Z,101396.92
2019-06-01T10:22:09.742Z,101393.95
2019-06-01T10:24:39.403Z,101397.54
2019-06-01T10:27:09.035Z,101393.41
2019-06-01T10:29:39.902Z,101395.39
2019-06-01T10:32:10.353Z,101392.19
2019-06-01T10:34:40.464Z,101386.80
2019-06-01T10:37:10.018Z,101382.23
2019-06-01T10:39:39.579Z,101380.55
2019-06-01T10:42:09.175Z,101371.55
2019-06-01T10:44:43.842Z,101371.16
2019-06-01T10:47:10.603Z,101366.77
2019-06-01T10:49:40.208Z,101374.12
2019-06-01T10:52:09.755Z,101369.53
2019-06-01T10:54:40.241Z,101367.84
2019-06-01T10:57:09.951Z,101366.89
2019-06-01T10:59:40.556Z,101361.14
2019-06-01T11:02:10.352Z,101355.28
2019-06-01T11:04:41.127Z,101369.91
2019-06-01T11:07:10.739Z,101368.88
2019-06-01T11:09:41.193Z,101373.88
2019-06-01T11:12:10.742Z,101367.77
2019-06-01T11:14:41.287Z,101361.70
2019-06-01T11:17:11.003Z,101358.83
2019-06-01T11:19:42.071Z,101353.48
2019-06-01T11:22:12.561Z,101358.64
2019-06-01T11:24:43.920Z,101352.34
2019-06-01T11:27:13.753Z,101353.47
2019-06-01T11:29:49.917Z,101347.28
2019-06-01T11:32:15.789Z,101346.13
2019-06-01T11:34:45.378Z,101338.82
2019-06-01T11:37:16.029Z,101337.17
2019-06-01T11:39:46.237Z,101345.77
2019-06-01T11:42:19.614Z,101343.25
2019-06-01T11:44:47.652Z,101336.96
2019-06-01T11:47:17.647Z,101332.95
2019-06-01T11:49:47.262Z,101333.51
2019-06-01T11:52:17.386Z,101330.56
2019-06-01T11:54:47.505Z,101327.98
2019-06-01T11:57:18.376Z,101314.76
2019-06-01T11:59:48.491Z,101324.78
2019-06-01T12:02:18.669Z,101309.86
2019-06-01T12:04:48.912Z,101309.78
2019-06-01T12:07:18.676Z,101310.98
2019-06-01T12:09:48.361Z,101318.91
2019-06-01T12:12:17.919Z,101313.94
2019-06-01T12:14:47.464Z,101314.13
2019-06-01T12:17:25.733Z,101310.09
2019-06-01T12:19:55.906Z,101302.00
2019-06-01T12:22:26.029Z,101294.58
2019-06-01T12:24:56.150Z,101300.77
2019-06-01T12:27:25.682Z,101303.14
2019-06-01T12:29:55.252Z,101302.46
2019-06-01T12:32:25.368Z,101295.66
2019-06-01T12:34:55.525Z,101294.81
2019-06-01T12:37:39.815Z,101286.27
2019-06-01T12:39:57.499Z,101284.65
2019-06-01T12:42:27.689Z,101283.54
2019-06-01T12:44:57.278Z,101282.94
2019-06-01T12:47:27.400Z,101271.72
2019-06-01T12:49:56.959Z,101273.08
2019-06-01T12:52:26.606Z,101272.06
2019-06-01T12:54:56.152Z,101272.30
2019-06-01T12:57:26.280Z,101276.31
2019-06-01T12:59:56.433Z,101273.99
2019-06-01T13:02:26.582Z,101260.63
2019-06-01T13:04:56.727Z,101260.36
2019-06-01T13:07:26.851Z,101245.07
2019-06-01T13:09:57.175Z,101255.30
2019-06-01T13:12:26.822Z,101247.08
2019-06-01T13:14:56.952Z,101248.27
2019-06-01T13:17:26.581Z,101235.72
2019-06-01T13:19:56.195Z,101239.37
2019-06-01T13:22:25.743Z,101243.31
2019-06-01T13:24:55.288Z,101235.68
2019-06-01T13:27:25.597Z,101237.71
2019-06-01T13:29:57.765Z,101235.80
2019-06-01T13:32:27.312Z,101236.57
2019-06-01T13:34:57.452Z,101233.72
2019-06-01T13:37:27.019Z,101232.78
2019-06-01T13:39:58.354Z,101237.79
2019-06-01T13:42:28.797Z,101231.45
2019-06-01T13:44:58.396Z,101226.27
2019-06-01T13:47:28.526Z,101226.63
2019-06-01T13:49:58.090Z,101217.78
2019-06-01T13:52:28.191Z,101213.33
2019-06-01T13:54:57.731Z,101213.69
2019-06-01T13:57:27.984Z,101218.23
2019-06-01T13:59:58.306Z,101212.70
2019-06-01T14:02:28.163Z,101211.18
2019-06-01T14:04:57.827Z,101208.15
2019-06-01T14:07:27.970Z,101205.82
2019-06-01T14:09:58.111Z,101206.20
2019-06-01T14:12:27.729Z,101200.35
2019-06-01T14:14:57.294Z,101201.87
2019-06-01T14:17:27.457Z,101194.84
2019-06-01T14:19:57.589Z,101192.59
2019-06-01T14:22:27.795Z,101193.61
2019-06-01T14:25:10.468Z,101189.62
2019-06-01T14:27:28.670Z,101193.64
2019-06-01T14:29:58.798Z,101194.98
2019-06-01T14:32:28.725Z,101188.30
2019-06-01T14:34:58.853Z,101177.92
2019-06-01T14:37:28.981Z,101181.91
2019-06-01T14:39:59.204Z,101178.41
2019-06-01T14:42:29.367Z,101182.94
2019-06-01T14:44:59.602Z,101164.33
2019-06-01T14:47:29.149Z,101170.91
2019-06-01T14:49:58.860Z,101166.38
2019-06-01T14:52:29.351Z,101167.36
2019-06-01T14:54:59.479Z,101170.24
2019-06-01T14:57:29.624Z,101166.21
2019-06-01T14:59:59.300Z,101158.51
2019-06-01T15:02:28.876Z,101157.82
2019-06-01T15:04:58.668Z,101158.14
2019-06-01T15:07:30.469Z,101158.47
2019-06-01T15:10:00.011Z,101160.50
2019-06-01T15:12:30.473Z,101159.51
2019-06-01T15:15:02.399Z,101157.31
2019-06-01T15:17:31.904Z,101155.66
2019-06-01T15:20:02.705Z,101154.98
2019-06-01T15:22:32.519Z,101152.65
2019-06-01T15:25:03.610Z,101145.77
2019-06-01T15:27:41.330Z,101151.45
2019-06-01T15:30:13.360Z,101141.05
2019-06-01T15:32:42.953Z,101141.40
2019-06-01T15:35:13.764Z,101145.09
2019-06-01T15:37:43.299Z,101145.42
2019-06-01T15:40:13.421Z,101135.84
2019-06-01T15:42:42.982Z,101134.98
2019-06-01T15:45:12.981Z,101127.93
2019-06-01T15:47:42.560Z,101121.56
2019-06-01T15:50:14.805Z,101126.62
2019-06-01T15:52:44.363Z,101130.33
2019-06-01T15:55:14.521Z,101126.64
2019-06-01T15:57:44.081Z,101124.96
2019-06-01T16:00:14.929Z,101124.48
2019-06-01T16:02:44.484Z,101118.25
2019-06-01T16:05:14.689Z,101112.56
2019-06-01T16:07:44.240Z,101105.69
2019-06-01T16:10:14.619Z,101106.33
2019-06-01T16:12:44.340Z,101104.17
2019-06-01T16:15:14.647Z,101102.48
2019-06-01T16:17:44.214Z,101101.84
2019-06-01T16:20:15.417Z,101105.87
2019-06-01T16:22:44.962Z,101102.00
2019-06-01T16:25:15.349Z,101096.30
2019-06-01T16:27:44.953Z,101099.52
2019-06-01T16:30:15.728Z,101098.48
2019-06-01T16:32:45.308Z,101095.13
2019-06-01T16:35:15.196Z,101094.83
2019-06-01T16:37:44.782Z,101095.48
2019-06-01T16:40:15.992Z,101095.62
2019-06-01T16:42:45.546Z,101096.48
2019-06-01T16:45:15.883Z,101098.13
2019-06-01T16:47:45.440Z,101100.15
2019-06-01T16:50:16.250Z,101090.44
2019-06-01T16:52:45.951Z,101090.48
2019-06-01T16:55:16.314Z,101087.07
2019-06-01T16:57:45.881Z,101078.86
2019-06-01T17:00:17.917Z,101080.70
2019-06-01T17:02:47.489Z,101082.55
2019-06-01T17:05:17.342Z,101074.33
2019-06-01T17:07:48.298Z,101078.35
2019-06-01T17:10:26.268Z,101077.16
2019-06-01T17:12:50.640Z,101081.88
2019-06-01T17:15:21.063Z,101081.38
2019-06-01T17:17:50.699Z,101080.36
2019-06-01T17:20:47.558Z,101074.16
2019-06-01T17:23:27.997Z,101071.97
2019-06-01T17:25:48.439Z,101073.15
2019-06-01T17:28:18.240Z,101076.00
2019-06-01T17:30:48.096Z,101073.33
2019-06-01T17:33:18.275Z,101073.12
2019-06-01T17:35:47.949Z,101073.98
2019-06-01T17:38:18.504Z,101077.98
2019-06-01T17:40:48.048Z,101066.24
2019-06-01T17:43:17.594Z,101067.92
2019-06-01T17:45:47.153Z,101069.59
2019-06-01T17:48:25.929Z,101068.22
2019-06-01T17:50:48.866Z,101070.06
2019-06-01T17:53:18.397Z,101070.89
2019-06-01T17:55:48.093Z,101073.05
2019-06-01T17:58:20.285Z,101065.64
2019-06-01T18:00:50.672Z,101058.77
2019-06-01T18:03:20.489Z,101055.60
2019-06-01T18:05:50.302Z,101058.43
2019-06-01T18:08:20.454Z,101060.44
2019-06-01T18:10:54.373Z,101060.94
2019-06-01T18:13:21.501Z,101059.75
2019-06-01T18:15:51.670Z,101056.55
2019-06-01T18:18:21.779Z,101057.86
2019-06-01T18:20:52.090Z,101058.67
2019-06-01T18:23:22.220Z,101053.28
2019-06-01T18:25:55.085Z,101055.95
2019-06-01T18:28:24.856Z,101057.44
2019-06-01T18:30:55.599Z,101053.24
2019-06-01T18:33:30.375Z,101051.73
2019-06-01T18:36:00.484Z,101048.13
2019-06-01T18:38:30.113Z,101046.13
2019-06-01T18:41:09.471Z,101049.97
2019-06-01T18:43:31.491Z,101047.42
2019-06-01T18:46:01.667Z,101047.70
2019-06-01T18:48:31.854Z,101048.98
2019-06-01T18:51:01.592Z,101053.35
2019-06-01T18:53:31.740Z,101051.79
2019-06-01T18:56:04.022Z,101053.61
2019-06-01T18:58:33.943Z,101055.75
2019-06-01T19:01:04.579Z,101049.55
2019-06-01T19:03:43.664Z,101054.50
2019-06-01T19:06:14.191Z,101045.73
2019-06-01T19:08:43.740Z,101049.70
2019-06-01T19:11:29.379Z,101053.84
2019-06-01T19:13:46.226Z,101054.59
2019-06-01T19:16:16.393Z,101053.05
2019-06-01T19:18:46.008Z,101050.81
2019-06-01T19:21:16.850Z,101058.32
2019-06-01T19:23:46.505Z,101055.77
2019-06-01T19:26:16.831Z,101049.14
2019-06-01T19:28:47.307Z,101049.91
2019-06-01T19:31:17.502Z,101049.53
2019-06-01T19:33:47.858Z,101050.29
2019-06-01T19:36:18.242Z,101050.17
2019-06-01T19:38:49.019Z,101049.38
2019-06-01T19:41:18.570Z,101049.09
2019-06-01T19:43:48.691Z,101054.50
2019-06-01T19:46:18.254Z,101056.75
2019-06-01T19:48:47.836Z,101059.55
2019-06-01T19:51:18.830Z,101060.55
2019-06-01T19:53:49.136Z,101061.66
2019-06-01T19:56:20.477Z,101059.27
2019-06-01T19:58:50.305Z,101058.19
2019-06-01T20:01:19.889Z,101059.45
2019-06-01T20:03:49.468Z,101056.48
2019-06-01T20:06:19.585Z,101060.64
2019-06-01T20:08:49.167Z,101057.57
2019-06-01T20:11:19.341Z,101057.57
2019-06-01T20:13:49.096Z,101060.45
2019-06-01T20:16:20.265Z,101062.52
2019-06-01T20:18:50.060Z,101068.89
2019-06-01T20:21:20.693Z,101068.41
2019-06-01T20:23:50.304Z,101063.84
2019-06-01T20:26:19.844Z,101064.90
2019-06-01T20:28:49.711Z,101063.31
2019-06-01T20:31:19.903Z,101056.28
2019-06-01T20:33:50.092Z,101057.09
2019-06-01T20:36:20.181Z,101051.63
2019-06-01T20:38:49.932Z,101058.13
2019-06-01T20:41:20.636Z,101050.41
2019-06-01T20:43:50.312Z,101056.88
2019-06-01T20:46:20.894Z,101050.26
2019-06-01T20:48:50.678Z,101054.41
2019-06-01T20:51:20.968Z,101048.30
2019-06-01T20:53:50.642Z,101052.02
2019-06-01T20:56:21.385Z,101047.94
2019-06-01T20:58:51.190Z,101051.94
2019-06-01T21:01:21.944Z,101052.00
2019-06-01T21:03:51.686Z,101049.75
2019-06-01T21:06:22.467Z,101052.75
2019-06-01T21:08:52.063Z,101046.52
2019-06-01T21:11:22.362Z,101049.45
2019-06-01T21:13:52.059Z,101049.69
2019-06-01T21:16:22.352Z,101045.97
2019-06-01T21:18:52.106Z,101047.56
2019-06-01T21:21:22.522Z,101055.48
2019-06-01T21:23:52.213Z,101050.00
2019-06-01T21:26:23.007Z,101050.75
2019-06-01T21:28:52.694Z,101051.77
2019-06-01T21:31:23.222Z,101053.93
2019-06-01T21:33:52.887Z,101054.58
2019-06-01T21:36:23.555Z,101052.22
2019-06-01T21:38:53.194Z,101056.26
2019-06-01T21:41:23.706Z,101052.67
2019-06-01T21:43:53.510Z,101046.66
2019-06-01T21:46:23.771Z,101049.53
2019-06-01T21:48:53.415Z,101042.70
2019-06-01T21:51:24.031Z,101043.56
2019-06-01T21:53:54.947Z,101043.86
2019-06-01T21:56:25.320Z,101039.35
2019-06-01T21:58:56.058Z,101044.63
2019-06-01T22:01:27.005Z,101042.62
2019-06-01T22:03:57.003Z,101040.00
2019-06-01T22:06:27.710Z,101034.59
2019-06-01T22:08:57.379Z,101034.37
2019-06-01T22:11:27.545Z,101024.47
2019-06-01T22:13:57.264Z,101024.84
2019-06-01T22:16:27.893Z,101030.52
2019-06-01T22:18:57.450Z,101027.13
2019-06-01T22:21:27.940Z,101027.16
2019-06-01T22:23:57.667Z,101027.16
2019-06-01T22:26:28.333Z,101020.06
2019-06-01T22:28:58.070Z,101021.39
2019-06-01T22:31:28.687Z,101017.29
2019-06-01T22:33:58.280Z,101015.84
2019-06-01T22:36:27.827Z,101005.70
2019-06-01T22:38:57.614Z,101001.23
2019-06-01T22:41:28.078Z,101012.68
2019-06-01T22:43:57.941Z,101003.84
2019-06-01T22:46:28.640Z,101004.06
2019-06-01T22:48:58.399Z,101010.45
2019-06-01T22:51:29.365Z,101007.06
2019-06-01T22:53:59.372Z,101007.53
2019-06-01T22:56:29.421Z,101004.77
2019-06-01T22:58:59.192Z,101008.27
2019-06-01T23:01:28.906Z,101010.00
2019-06-01T23:03:58.512Z,101005.81
2019-06-01T23:06:29.246Z,100999.91
2019-06-01T23:08:58.919Z,101004.99
2019-06-01T23:11:29.586Z,100998.48
2019-06-01T23:13:59.148Z,100996.58
2019-06-01T23:16:29.743Z,100993.10
2019-06-01T23:18:59.630Z,101001.34
2019-06-01T23:21:29.963Z,100995.19
2019-06-01T23:23:59.617Z,100987.00
2019-06-01T23:26:30.287Z,100984.00
2019-06-01T23:29:00.019Z,100987.86
2019-06-01T23:31:30.466Z,100981.14
2019-06-01T23:34:00.124Z,100986.08
2019-06-01T23:36:30.683Z,100969.31
2019-06-01T23:39:02.930Z,100982.09
2019-06-01T23:41:32.957Z,100979.83
2019-06-01T23:44:11.776Z,100972.22
2019-06-01T23:46:34.085Z,100972.22
2019-06-01T23:49:03.737Z,100971.73
2019-06-01T23:51:33.969Z,100969.45
2019-06-01T23:54:03.647Z,100966.80
2019-06-01T23:56:34.722Z,100965.12
2019-06-01T23:59:04.572Z,100962.86
